Station Historical Data
 
Daily Summary for February 20, 2018 Units:  English    Metric   Both
« Previous Day
Next Day »
Daily Weekly Monthly Yearly Custom
  Current: High: Low: Average:
Temperature: 62.4 °F TemperatureF °F 42.4 °F 57 °F
Dew Point: 59.1 °F DewpointF °F 41.6 °F 52.9 °F
Humidity: 89% Humidity% 65% 87%
Wind Speed: 6.6mph WindSpeedMPHmph 0.0mph 4.5mph
Wind Gust: 18.4mph WindSpeedGustMPHmph - -
WindSW - - SSW
Pressure: 30.30 in PressureIn in 30.24 in -
Precipitation: 0.00 in      
Historical Graphs
 
 
Tabular Data for February 20, 2018
Time Temperature Dew Point Pressure Wind Wind Speed Wind Gust Humidity Rainfall Rate (Hourly) solar Conditions
TemperatureF °F DewpointF °F PressureIn in Calm     Humidity% HourlyPrecipIn in SoftwareType W/m2 Conditions
00:02 43.0 °F 42.2 °F 30.31 in Calm   26.5 mph 97% 0.01 in WeatherDisplay:10.37 W/m2 RA
00:07 43.1 °F 42.3 °F 30.31 in Calm   26.5 mph 97% 0.01 in WeatherDisplay:10.37 W/m2 RA
00:12 43.2 °F 42.4 °F 30.31 in Calm   26.5 mph 97% 0.01 in WeatherDisplay:10.37 W/m2 RA
00:17 43.3 °F 42.5 °F 30.31 in Calm   26.5 mph 97% 0.01 in WeatherDisplay:10.37 W/m2 RA
00:22 43.4 °F 42.6 °F 30.31 in Calm   26.5 mph 97% 0.01 in WeatherDisplay:10.37 W/m2 RA
00:27 43.4 °F 42.6 °F 30.31 in Calm   26.5 mph 97% 0.01 in WeatherDisplay:10.37 W/m2 RA
00:32 43.5 °F 42.7 °F 30.31 in Calm   26.5 mph 97% 0.01 in WeatherDisplay:10.37 W/m2 RA
00:37 43.5 °F 42.7 °F 30.31 in Calm   26.5 mph 97% 0.01 in WeatherDisplay:10.37 W/m2 RA
00:42 43.5 °F 42.7 °F 30.31 in Calm   26.5 mph 97% 0.01 in WeatherDisplay:10.37 W/m2 RA
00:47 43.5 °F 42.7 °F 30.32 in Calm   26.5 mph 97% 0.01 in WeatherDisplay:10.37 W/m2 CLR
00:52 43.4 °F 42.6 °F 30.31 in Calm   26.5 mph 97% 0.01 in WeatherDisplay:10.37 W/m2
00:57 43.2 °F 42.4 °F 30.31 in Calm   26.5 mph 97% 0.01 in WeatherDisplay:10.37 W/m2 CLR
01:02 43.2 °F 42.4 °F 30.31 in Calm   26.5 mph 97% 0.01 in WeatherDisplay:10.37 W/m2
01:07 43.1 °F 42.3 °F 30.31 in Calm   26.5 mph 97% 0.01 in WeatherDisplay:10.37 W/m2
01:12 43.0 °F 42.2 °F 30.31 in Calm   26.5 mph 97% 0.01 in WeatherDisplay:10.37 W/m2 CLR
01:17 42.9 °F 42.1 °F 30.31 in Calm   26.5 mph 97% 0.01 in WeatherDisplay:10.37 W/m2 CLR
01:22 42.8 °F 42.0 °F 30.31 in Calm   26.5 mph 97% 0.01 in WeatherDisplay:10.37 W/m2
01:27 42.7 °F 41.9 °F 30.31 in Calm   26.5 mph 97% 0.01 in WeatherDisplay:10.37 W/m2
01:32 42.6 °F 41.8 °F 30.31 in Calm   26.5 mph 97% 0.01 in WeatherDisplay:10.37 W/m2
01:37 42.5 °F 41.7 °F 30.31 in Calm   26.5 mph 97% 0.01 in WeatherDisplay:10.37 W/m2
01:42 42.4 °F 41.6 °F 30.31 in Calm   26.5 mph 97% 0.01 in WeatherDisplay:10.37 W/m2
01:47 42.4 °F 41.6 °F 30.31 in Calm   26.5 mph 97% 0.01 in WeatherDisplay:10.37 W/m2 CLR
01:52 42.4 °F 41.6 °F 30.31 in Calm   26.5 mph 97% 0.01 in WeatherDisplay:10.37 W/m2
01:57 42.4 °F 41.6 °F 30.31 in Calm   26.5 mph 97% 0.01 in WeatherDisplay:10.37 W/m2
02:02 42.5 °F 41.7 °F 30.31 in Calm   26.5 mph 97% 0.01 in WeatherDisplay:10.37 W/m2
02:07 42.7 °F 41.9 °F 30.30 in Calm   26.5 mph 97% 0.01 in WeatherDisplay:10.37 W/m2
02:12 42.8 °F 42.0 °F 30.30 in Calm   26.5 mph 97% 0.01 in WeatherDisplay:10.37 W/m2
02:17 42.8 °F 42.0 °F 30.30 in Calm   26.5 mph 97% 0.01 in WeatherDisplay:10.37 W/m2
02:22 42.8 °F 42.0 °F 30.30 in Calm   26.5 mph 97% 0.01 in WeatherDisplay:10.37 W/m2
02:27 43.3 °F 42.8 °F 30.30 in West 0.1 mph 26.5 mph 98% 0.01 in WeatherDisplay:10.37 W/m2
02:32 43.7 °F 43.2 °F 30.30 in SW 0.3 mph 26.5 mph 98% 0.01 in WeatherDisplay:10.37 W/m2
02:37 44.0 °F 43.5 °F 30.30 in SW 0.4 mph 26.5 mph 98% 0.00 in WeatherDisplay:10.37 W/m2
02:42 44.4 °F 43.9 °F 30.30 in SW 0.5 mph 26.5 mph 98% 0.00 in WeatherDisplay:10.37 W/m2
02:47 44.4 °F 43.9 °F 30.30 in SW 0.5 mph 26.5 mph 98% 0.00 in WeatherDisplay:10.37 W/m2
02:52 44.8 °F 44.3 °F 30.30 in SW 0.6 mph 26.5 mph 98% 0.00 in WeatherDisplay:10.37 W/m2 CLR
02:57 44.8 °F 44.3 °F 30.30 in SW 0.6 mph 26.5 mph 98% 0.00 in WeatherDisplay:10.37 W/m2 CLR
03:02 44.8 °F 44.0 °F 30.29 in SW 0.6 mph 26.5 mph 97% 0.00 in WeatherDisplay:10.37 W/m2
03:07 44.8 °F 44.0 °F 30.29 in SW 0.6 mph 26.5 mph 97% 0.00 in WeatherDisplay:10.37 W/m2
03:12 45.0 °F 44.5 °F 30.29 in SW 0.6 mph 26.5 mph 98% 0.00 in WeatherDisplay:10.37 W/m2 CLR
03:17 45.1 °F 44.6 °F 30.29 in SW 0.3 mph 26.5 mph 98% 0.00 in WeatherDisplay:10.37 W/m2
03:22 45.1 °F 44.3 °F 30.29 in SW 0.3 mph 26.5 mph 97% 0.00 in WeatherDisplay:10.37 W/m2
03:27 45.1 °F 44.6 °F 30.29 in SSW 0.3 mph 26.5 mph 98% 0.00 in WeatherDisplay:10.37 W/m2
03:32 45.2 °F 44.7 °F 30.29 in SW 0.4 mph 26.5 mph 98% 0.00 in WeatherDisplay:10.37 W/m2
03:37 45.3 °F 44.8 °F 30.29 in SW 0.5 mph 26.5 mph 98% 0.00 in WeatherDisplay:10.37 W/m2
03:42 45.7 °F 45.2 °F 30.29 in SW 0.8 mph 26.5 mph 98% 0.00 in WeatherDisplay:10.37 W/m2
03:47 46.1 °F 45.6 °F 30.28 in SSW 1.3 mph 26.5 mph 98% 0.00 in WeatherDisplay:10.37 W/m2
03:52 46.3 °F 45.8 °F 30.28 in SW 1.5 mph 26.5 mph 98% 0.00 in WeatherDisplay:10.37 W/m2
03:57 46.3 °F 45.8 °F 30.28 in SW 1.5 mph 26.5 mph 98% 0.00 in WeatherDisplay:10.37 W/m2
04:02 46.5 °F 46.0 °F 30.28 in SSW 1.7 mph 26.5 mph 98% 0.00 in WeatherDisplay:10.37 W/m2 CLR
04:07 46.7 °F 46.2 °F 30.29 in SW 2.1 mph 26.5 mph 98% 0.00 in WeatherDisplay:10.37 W/m2
04:12 46.8 °F 46.3 °F 30.29 in SW 2.5 mph 26.5 mph 98% 0.00 in WeatherDisplay:10.37 W/m2
04:17 46.9 °F 46.4 °F 30.28 in SSW 2.8 mph 26.5 mph 98% 0.00 in WeatherDisplay:10.37 W/m2 CLR
04:22 47.0 °F 46.5 °F 30.28 in SW 3.1 mph 26.5 mph 98% 0.00 in WeatherDisplay:10.37 W/m2 CLR
04:27 47.1 °F 46.6 °F 30.29 in SW 3.3 mph 26.5 mph 98% 0.00 in WeatherDisplay:10.37 W/m2 CLR
04:33 47.2 °F 46.7 °F 30.28 in SW 3.6 mph 26.5 mph 98% 0.00 in WeatherDisplay:10.37 W/m2 CLR
04:38 47.3 °F 46.8 °F 30.28 in SW 3.7 mph 26.5 mph 98% 0.00 in WeatherDisplay:10.37 W/m2 CLR
04:43 47.3 °F 46.8 °F 30.28 in SW 3.8 mph 26.5 mph 98% 0.00 in WeatherDisplay:10.37 W/m2
04:48 47.4 °F 46.9 °F 30.28 in SSW 3.9 mph 26.5 mph 98% 0.00 in WeatherDisplay:10.37 W/m2
04:51 47.4 °F 46.9 °F 30.28 in SW 3.9 mph 26.5 mph 98% 0.00 in WeatherDisplay:10.37 W/m2
04:53 47.4 °F 46.9 °F 30.28 in SW 3.9 mph 26.5 mph 98% 0.00 in WeatherDisplay:10.37 W/m2
04:58 47.4 °F 46.9 °F 30.28 in SW 3.9 mph 26.5 mph 98% 0.00 in WeatherDisplay:10.37 W/m2
05:03 47.6 °F 47.1 °F 30.28 in WSW 3.9 mph 26.5 mph 98% 0.00 in WeatherDisplay:10.37 W/m2 CLR
05:08 47.6 °F 47.1 °F 30.28 in WSW 3.9 mph 26.5 mph 98% 0.00 in WeatherDisplay:10.37 W/m2 CLR
05:13 47.8 °F 47.3 °F 30.29 in SW 4.0 mph 26.5 mph 98% 0.00 in WeatherDisplay:10.37 W/m2 CLR
05:18 47.9 °F 47.4 °F 30.29 in South 4.4 mph 26.5 mph 98% 0.00 in WeatherDisplay:10.37 W/m2 CLR
05:23 48.1 °F 47.6 °F 30.29 in SW 4.3 mph 26.5 mph 98% 0.00 in WeatherDisplay:10.37 W/m2 CLR
05:28 48.2 °F 47.7 °F 30.29 in SSW 4.2 mph 26.5 mph 98% 0.00 in WeatherDisplay:10.37 W/m2 CLR
05:33 48.2 °F 47.7 °F 30.29 in SSW 4.2 mph 26.5 mph 98% 0.00 in WeatherDisplay:10.37 W/m2 CLR
05:38 48.3 °F 47.8 °F 30.30 in SSE 4.2 mph 26.5 mph 98% 0.00 in WeatherDisplay:10.37 W/m2 CLR
05:43 48.4 °F 47.9 °F 30.30 in WSW 4.2 mph 26.5 mph 98% 0.00 in WeatherDisplay:10.37 W/m2 CLR
05:48 48.5 °F 48.0 °F 30.30 in SW 4.4 mph 26.5 mph 98% 0.00 in WeatherDisplay:10.37 W/m2 CLR
05:53 48.6 °F 48.1 °F 30.30 in SSW 4.3 mph 26.5 mph 98% 0.00 in WeatherDisplay:10.37 W/m2 OVC
05:58 48.6 °F 48.1 °F 30.30 in SW 4.3 mph 26.5 mph 98% 0.00 in WeatherDisplay:10.37 W/m2 OVC
06:03 48.7 °F 48.2 °F 30.30 in SW 4.6 mph 26.5 mph 98% 0.00 in WeatherDisplay:10.37 W/m2 OVC
06:08 48.7 °F 48.2 °F 30.30 in SW 4.6 mph 26.5 mph 98% 0.00 in WeatherDisplay:10.37 W/m2 OVC
06:13 48.8 °F 48.3 °F 30.30 in WSW 4.7 mph 26.5 mph 98% 0.00 in WeatherDisplay:10.37 W/m2 OVC
06:18 48.8 °F 48.3 °F 30.31 in WSW 4.9 mph 26.5 mph 98% 0.00 in WeatherDisplay:10.37 W/m2 OVC
06:23 48.9 °F 48.4 °F 30.31 in WSW 5.1 mph 26.5 mph 98% 0.00 in WeatherDisplay:10.37 W/m2 OVC
06:28 48.9 °F 48.4 °F 30.32 in SW 5.0 mph 26.5 mph 98% 0.00 in WeatherDisplay:10.37 W/m2 OVC
06:33 48.9 °F 48.4 °F 30.32 in WSW 4.9 mph 26.5 mph 98% 0.00 in WeatherDisplay:10.37 W/m2 OVC
06:38 49.0 °F 48.5 °F 30.32 in SW 4.9 mph 26.5 mph 98% 0.00 in WeatherDisplay:10.37 W/m2 OVC
06:43 48.9 °F 48.4 °F 30.32 in SW 4.9 mph 26.5 mph 98% 0.00 in WeatherDisplay:10.37 W/m2 OVC
06:48 49.0 °F 48.5 °F 30.32 in West 4.7 mph 26.5 mph 98% 0.00 in WeatherDisplay:10.37 W/m2 OVC
06:53 49.1 °F 48.6 °F 30.32 in WSW 4.9 mph 26.5 mph 98% 0.00 in WeatherDisplay:10.37 W/m2 OVC
06:58 49.2 °F 48.7 °F 30.32 in WSW 4.7 mph 26.5 mph 98% 0.00 in WeatherDisplay:10.37 W/m2 OVC
07:03 49.2 °F 48.7 °F 30.32 in SW 4.7 mph 26.5 mph 98% 0.00 in WeatherDisplay:10.37 W/m2 OVC
07:08 49.3 °F 48.8 °F 30.32 in WSW 4.7 mph 26.5 mph 98% 0.00 in WeatherDisplay:10.37 W/m2 OVC
07:13 49.4 °F 48.9 °F 30.32 in SW 4.8 mph 26.5 mph 98% 0.00 in WeatherDisplay:10.37 W/m2 OVC
07:18 49.5 °F 49.0 °F 30.32 in SW 4.9 mph 26.5 mph 98% 0.00 in WeatherDisplay:10.37 W/m2 OVC
07:23 49.6 °F 49.1 °F 30.32 in SW 5.1 mph 26.5 mph 98% 0.00 in WeatherDisplay:10.37 W/m2 OVC
07:28 49.6 °F 49.1 °F 30.33 in WSW 5.1 mph 26.5 mph 98% 0.00 in WeatherDisplay:10.37 W/m2 OVC
07:33 49.7 °F 49.2 °F 30.33 in WSW 5.2 mph 26.5 mph 98% 0.00 in WeatherDisplay:10.37 W/m2 OVC
07:38 49.7 °F 49.2 °F 30.33 in WSW 5.4 mph 26.5 mph 98% 0.00 in WeatherDisplay:10.37 W/m2 OVC
07:43 49.8 °F 49.3 °F 30.33 in WSW 5.2 mph 26.5 mph 98% 0.00 in WeatherDisplay:10.37 W/m2 OVC
07:48 49.9 °F 49.4 °F 30.33 in SW 5.6 mph 26.5 mph 98% 0.00 in WeatherDisplay:10.37 W/m2 OVC
07:53 50.0 °F 49.5 °F 30.33 in SW 5.7 mph 26.5 mph 98% 0.00 in WeatherDisplay:10.37 W/m2 OVC
07:58 50.3 °F 49.8 °F 30.33 in SSW 5.9 mph 26.5 mph 98% 0.00 in WeatherDisplay:10.37 W/m2 OVC
08:03 50.4 °F 49.9 °F 30.33 in SW 5.8 mph 26.5 mph 98% 0.00 in WeatherDisplay:10.37 W/m2 OVC
08:08 50.4 °F 49.9 °F 30.33 in SW 5.9 mph 26.5 mph 98% 0.00 in WeatherDisplay:10.37 W/m2 OVC
08:13 50.5 °F 50.0 °F 30.33 in SSW 5.7 mph 26.5 mph 98% 0.00 in WeatherDisplay:10.37 W/m2 OVC
08:18 50.5 °F 50.0 °F 30.33 in SW 5.6 mph 26.5 mph 98% 0.00 in WeatherDisplay:10.37 W/m2 OVC
08:23 50.4 °F 49.9 °F 30.33 in WSW 5.9 mph 26.5 mph 98% 0.00 in WeatherDisplay:10.37 W/m2 OVC
08:28 50.4 °F 49.9 °F 30.33 in SSW 6.1 mph 26.5 mph 98% 0.00 in WeatherDisplay:10.37 W/m2 OVC
08:33 50.6 °F 50.1 °F 30.33 in WSW 6.1 mph 26.5 mph 98% 0.00 in WeatherDisplay:10.37 W/m2 OVC
08:38 50.7 °F 50.2 °F 30.33 in SW 6.2 mph 26.5 mph 98% 0.00 in WeatherDisplay:10.37 W/m2 OVC
08:43 50.9 °F 50.4 °F 30.33 in WSW 6.2 mph 26.5 mph 98% 0.00 in WeatherDisplay:10.37 W/m2 OVC
08:48 51.0 °F 50.5 °F 30.33 in SW 6.5 mph 26.5 mph 98% 0.00 in WeatherDisplay:10.37 W/m2 OVC
08:53 51.2 °F 50.7 °F 30.33 in SW 6.3 mph 26.5 mph 98% 0.00 in WeatherDisplay:10.37 W/m2 OVC
08:58 51.2 °F 50.7 °F 30.34 in SW 6.1 mph 26.5 mph 98% 0.00 in WeatherDisplay:10.37 W/m2 OVC
09:03 51.3 °F 50.8 °F 30.34 in WSW 6.2 mph 26.5 mph 98% 0.00 in WeatherDisplay:10.37 W/m2 OVC
09:08 51.3 °F 50.8 °F 30.34 in SSW 6.4 mph 26.5 mph 98% 0.00 in WeatherDisplay:10.37 W/m2 OVC
09:12 51.4 °F 50.9 °F 30.34 in SW 6.2 mph 26.5 mph 98% 0.00 in WeatherDisplay:10.37 W/m2 OVC
09:13 51.4 °F 50.9 °F 30.34 in SW 6.2 mph 26.5 mph 98% 0.00 in WeatherDisplay:10.37 W/m2 OVC
09:18 51.4 °F 50.9 °F 30.34 in SW 6.2 mph 26.5 mph 98% 0.00 in WeatherDisplay:10.37 W/m2 OVC
09:23 51.7 °F 51.2 °F 30.34 in SW 6.4 mph 26.5 mph 98% 0.00 in WeatherDisplay:10.37 W/m2 OVC
09:28 51.7 °F 51.2 °F 30.34 in SW 6.4 mph 26.5 mph 98% 0.00 in WeatherDisplay:10.37 W/m2 OVC
09:33 51.8 °F 51.3 °F 30.35 in SSW 6.2 mph 26.5 mph 98% 0.00 in WeatherDisplay:10.37 W/m2 OVC
09:38 51.9 °F 51.4 °F 30.34 in SW 6.1 mph 26.5 mph 98% 0.00 in WeatherDisplay:10.37 W/m2 OVC
09:43 52.2 °F 51.7 °F 30.34 in WSW 6.0 mph 26.5 mph 98% 0.00 in WeatherDisplay:10.37 W/m2 OVC
09:48 52.6 °F 52.1 °F 30.34 in WSW 6.0 mph 26.5 mph 98% 0.00 in WeatherDisplay:10.37 W/m2 OVC
09:53 52.7 °F 52.2 °F 30.34 in WSW 5.5 mph 26.5 mph 98% 0.00 in WeatherDisplay:10.37 W/m2 OVC
09:58 52.8 °F 52.3 °F 30.34 in SW 5.4 mph 26.5 mph 98% 0.00 in WeatherDisplay:10.37 W/m2 OVC
10:03 53.1 °F 52.6 °F 30.34 in SW 5.6 mph 26.5 mph 98% 0.00 in WeatherDisplay:10.37 W/m2 OVC
10:08 53.2 °F 52.7 °F 30.34 in SW 5.4 mph 26.5 mph 98% 0.00 in WeatherDisplay:10.37 W/m2 OVC
10:13 53.3 °F 52.8 °F 30.33 in SW 5.1 mph 26.5 mph 98% 0.00 in WeatherDisplay:10.37 W/m2 OVC
10:18 53.4 °F 52.6 °F 30.33 in SSW 5.3 mph 26.5 mph 97% 0.00 in WeatherDisplay:10.37 W/m2 OVC
10:23 53.7 °F 52.9 °F 30.33 in SSW 5.6 mph 26.5 mph 97% 0.00 in WeatherDisplay:10.37 W/m2 OVC
10:28 53.9 °F 53.1 °F 30.33 in South 5.5 mph 26.5 mph 97% 0.00 in WeatherDisplay:10.37 W/m2 OVC
10:33 54.1 °F 53.3 °F 30.33 in WSW 5.6 mph 26.5 mph 97% 0.00 in WeatherDisplay:10.37 W/m2 OVC
10:38 54.1 °F 53.3 °F 30.33 in WSW 5.7 mph 26.5 mph 97% 0.00 in WeatherDisplay:10.37 W/m2 OVC
10:43 54.2 °F 53.1 °F 30.33 in SW 5.5 mph 26.5 mph 96% 0.00 in WeatherDisplay:10.37 W/m2 OVC
10:48 54.7 °F 53.6 °F 30.33 in SW 5.8 mph 26.5 mph 96% 0.00 in WeatherDisplay:10.37 W/m2 OVC
10:53 54.7 °F 53.6 °F 30.33 in SW 5.8 mph 26.5 mph 96% 0.00 in WeatherDisplay:10.37 W/m2 OVC
10:58 55.1 °F 53.7 °F 30.33 in South 5.9 mph 26.5 mph 95% 0.00 in WeatherDisplay:10.37 W/m2 OVC
11:03 55.2 °F 53.8 °F 30.33 in SSW 6.1 mph 26.5 mph 95% 0.00 in WeatherDisplay:10.37 W/m2 OVC
11:08 55.6 °F 54.2 °F 30.33 in SSW 6.0 mph 26.5 mph 95% 0.00 in WeatherDisplay:10.37 W/m2 OVC
11:13 56.1 °F 54.4 °F 30.33 in SW 6.1 mph 26.5 mph 94% 0.00 in WeatherDisplay:10.37 W/m2 OVC
11:18 56.3 °F 54.6 °F 30.33 in South 6.0 mph 26.5 mph 94% 0.00 in WeatherDisplay:10.37 W/m2 OVC
11:23 56.9 °F 54.9 °F 30.33 in SSW 5.6 mph 26.5 mph 93% 0.00 in WeatherDisplay:10.37 W/m2 OVC
11:28 57.4 °F 55.1 °F 30.33 in WSW 5.7 mph 26.5 mph 92% 0.00 in WeatherDisplay:10.37 W/m2 OVC
11:33 57.7 °F 55.1 °F 30.32 in SW 5.8 mph 26.5 mph 91% 0.00 in WeatherDisplay:10.37 W/m2 OVC
11:38 58.3 °F 56.0 °F 30.32 in WSW 5.7 mph 26.5 mph 92% 0.00 in WeatherDisplay:10.37 W/m2 OVC
11:43 58.3 °F 56.0 °F 30.32 in WSW 5.7 mph 26.5 mph 92% 0.00 in WeatherDisplay:10.37 W/m2 OVC
11:48 59.2 °F 56.3 °F 30.32 in WSW 5.8 mph 26.5 mph 90% 0.00 in WeatherDisplay:10.37 W/m2 OVC
11:53 59.5 °F 56.3 °F 30.32 in SSW 5.9 mph 26.5 mph 89% 0.00 in WeatherDisplay:10.37 W/m2 OVC
11:58 59.8 °F 56.2 °F 30.32 in South 5.9 mph 26.5 mph 88% 0.00 in WeatherDisplay:10.37 W/m2 OVC
12:03 60.4 °F 56.5 °F 30.31 in SSW 5.8 mph 26.5 mph 87% 0.00 in WeatherDisplay:10.37 W/m2 OVC
12:08 60.5 °F 56.3 °F 30.31 in SW 5.9 mph 26.5 mph 86% 0.00 in WeatherDisplay:10.37 W/m2 OVC
12:13 60.9 °F 56.4 °F 30.30 in WSW 5.8 mph 26.5 mph 85% 0.00 in WeatherDisplay:10.37 W/m2 OVC
12:18 61.3 °F 56.4 °F 30.30 in SSW 5.8 mph 26.5 mph 84% 0.00 in WeatherDisplay:10.37 W/m2 OVC
12:23 61.7 °F 57.1 °F 30.30 in WSW 5.8 mph 26.5 mph 85% 0.00 in WeatherDisplay:10.37 W/m2 OVC
12:28 61.8 °F 56.9 °F 30.30 in West 6.0 mph 26.5 mph 84% 0.00 in WeatherDisplay:10.37 W/m2 OVC
12:33 62.5 °F 57.3 °F 30.30 in SSW 5.8 mph 26.5 mph 83% 0.00 in WeatherDisplay:10.37 W/m2 OVC
12:38 62.7 °F 57.5 °F 30.30 in SSW 5.7 mph 26.5 mph 83% 0.00 in WeatherDisplay:10.37 W/m2 OVC
12:43 63.4 °F 57.5 °F 30.29 in SSW 5.7 mph 26.5 mph 81% 0.00 in WeatherDisplay:10.37 W/m2 OVC
12:48 63.9 °F 58.0 °F 30.29 in South 5.7 mph 26.5 mph 81% 0.00 in WeatherDisplay:10.37 W/m2 OVC
12:53 64.2 °F 57.9 °F 30.29 in SSW 5.7 mph 26.5 mph 80% 0.00 in WeatherDisplay:10.37 W/m2 FEW
12:58 64.9 °F 58.6 °F 30.29 in South 5.6 mph 26.5 mph 80% 0.00 in WeatherDisplay:10.37 W/m2 FEW
13:03 65.6 °F 58.2 °F 30.28 in WSW 5.7 mph 26.5 mph 77% 0.00 in WeatherDisplay:10.37 W/m2 FEW
13:08 65.6 °F 58.2 °F 30.28 in WSW 5.7 mph 26.5 mph 77% 0.00 in WeatherDisplay:10.37 W/m2 FEW
13:13 66.2 °F 58.4 °F 30.28 in SSW 5.7 mph 26.5 mph 76% 0.00 in WeatherDisplay:10.37 W/m2 FEW
13:18 66.5 °F 58.7 °F 30.27 in South 5.8 mph 26.5 mph 76% 0.00 in WeatherDisplay:10.37 W/m2 FEW
13:23 66.7 °F 58.1 °F 30.27 in SW 6.2 mph 26.5 mph 74% 0.00 in WeatherDisplay:10.37 W/m2 FEW
13:28 66.7 °F 58.1 °F 30.27 in SW 6.2 mph 26.5 mph 74% 0.00 in WeatherDisplay:10.37 W/m2 FEW
13:33 67.0 °F 58.8 °F 30.27 in SW 6.1 mph 26.5 mph 75% 0.00 in WeatherDisplay:10.37 W/m2 FEW
13:38 67.0 °F 58.8 °F 30.27 in SW 6.1 mph 26.5 mph 75% 0.00 in WeatherDisplay:10.37 W/m2 FEW
13:43 67.4 °F 58.8 °F 30.27 in SW 6.2 mph 26.5 mph 74% 0.00 in WeatherDisplay:10.37 W/m2 FEW
13:48 67.7 °F 59.1 °F 30.27 in SW 6.4 mph 26.5 mph 74% 0.00 in WeatherDisplay:10.37 W/m2 FEW
13:53 68.1 °F 58.7 °F 30.26 in SSE 6.3 mph 26.5 mph 72% 0.00 in WeatherDisplay:10.37 W/m2 FEW
13:58 68.5 °F 59.5 °F 30.26 in South 6.3 mph 26.5 mph 73% 0.00 in WeatherDisplay:10.37 W/m2 FEW
14:03 68.5 °F 59.5 °F 30.26 in South 6.3 mph 26.5 mph 73% 0.00 in WeatherDisplay:10.37 W/m2 FEW
14:08 69.4 °F 59.6 °F 30.26 in SSW 6.6 mph 26.5 mph 71% 0.00 in WeatherDisplay:10.37 W/m2 FEW
14:13 69.4 °F 59.6 °F 30.26 in SSW 6.6 mph 26.5 mph 71% 0.00 in WeatherDisplay:10.37 W/m2 FEW
14:18 69.2 °F 59.4 °F 30.26 in SW 6.8 mph 26.5 mph 71% 0.00 in WeatherDisplay:10.37 W/m2 FEW
14:23 69.5 °F 59.7 °F 30.26 in SSW 6.8 mph 26.5 mph 71% 0.00 in WeatherDisplay:10.37 W/m2 FEW
14:28 69.6 °F 59.4 °F 30.26 in WSW 6.9 mph 26.5 mph 70% 0.00 in WeatherDisplay:10.37 W/m2 FEW
14:33 69.6 °F 59.4 °F 30.26 in WSW 6.9 mph 26.5 mph 70% 0.00 in WeatherDisplay:10.37 W/m2 FEW
14:38 69.7 °F 59.5 °F 30.26 in SW 7.0 mph 26.5 mph 70% 0.00 in WeatherDisplay:10.37 W/m2 FEW
14:43 70.0 °F 59.8 °F 30.26 in WSW 7.2 mph 26.5 mph 70% 0.00 in WeatherDisplay:10.37 W/m2 FEW
14:48 70.2 °F 60.0 °F 30.26 in SSW 6.6 mph 26.5 mph 70% 0.00 in WeatherDisplay:10.37 W/m2 FEW
14:53 70.4 °F 59.7 °F 30.26 in SSW 6.8 mph 26.5 mph 69% 0.00 in WeatherDisplay:10.37 W/m2 FEW
14:58 70.8 °F 60.1 °F 30.25 in SSW 6.7 mph 26.5 mph 69% 0.00 in WeatherDisplay:10.37 W/m2 FEW
15:03 71.0 °F 60.3 °F 30.25 in South 6.6 mph 26.5 mph 69% 0.00 in WeatherDisplay:10.37 W/m2 FEW
15:08 71.2 °F 60.5 °F 30.25 in WSW 6.6 mph 26.5 mph 69% 0.00 in WeatherDisplay:10.37 W/m2 FEW
15:13 71.2 °F 60.1 °F 30.25 in SW 7.0 mph 26.5 mph 68% 0.00 in WeatherDisplay:10.37 W/m2 FEW
15:15 65.2 °F 58.9 °F 30.29 in South 5.0 mph 16.0 mph 80% 0.00 in WeatherDisplay:10.37 W/m2
15:18 71.3 °F 60.2 °F 30.25 in SW 7.1 mph 26.5 mph 68% 0.00 in WeatherDisplay:10.37 W/m2 FEW
15:23 71.7 °F 59.7 °F 30.25 in SSW 7.2 mph 26.5 mph 66% 0.00 in WeatherDisplay:10.37 W/m2 FEW
15:25 65.0 °F 58.7 °F 30.29 in SSW 1.0 mph 6.0 mph 80% 0.00 in WeatherDisplay:10.37 W/m2
15:28 71.6 °F 59.6 °F 30.25 in SSW 7.2 mph 26.5 mph 66% 0.00 in WeatherDisplay:10.37 W/m2 CLR
15:33 71.3 °F 59.4 °F 30.24 in SW 7.6 mph 26.5 mph 66% 0.00 in WeatherDisplay:10.37 W/m2 CLR
15:35 64.4 °F 58.4 °F 30.29 in South 1.0 mph 6.0 mph 81% 0.00 in WeatherDisplay:10.37 W/m2
15:38 71.3 °F 59.8 °F 30.25 in SSW 7.3 mph 26.5 mph 67% 0.00 in WeatherDisplay:10.37 W/m2 CLR
15:43 71.4 °F 59.9 °F 30.25 in SW 7.3 mph 26.5 mph 67% 0.00 in WeatherDisplay:10.37 W/m2 CLR
15:48 71.4 °F 59.9 °F 30.25 in SW 7.3 mph 26.5 mph 67% 0.00 in WeatherDisplay:10.37 W/m2 CLR
15:53 71.7 °F 59.7 °F 30.25 in South 7.4 mph 26.5 mph 66% 0.00 in WeatherDisplay:10.37 W/m2 CLR
15:58 71.8 °F 59.8 °F 30.25 in South 7.3 mph 26.5 mph 66% 0.00 in WeatherDisplay:10.37 W/m2 CLR
16:03 71.9 °F 59.9 °F 30.25 in SSW 7.4 mph 26.5 mph 66% 0.00 in WeatherDisplay:10.37 W/m2 CLR
16:08 72.0 °F 59.6 °F 30.25 in SSW 7.6 mph 26.5 mph 65% 0.00 in WeatherDisplay:10.37 W/m2 CLR
16:13 71.9 °F 59.9 °F 30.25 in SW 7.6 mph 26.5 mph 66% 0.00 in WeatherDisplay:10.37 W/m2 CLR
16:18 71.9 °F 59.9 °F 30.25 in South 7.6 mph 26.5 mph 66% 0.00 in WeatherDisplay:10.37 W/m2 CLR
16:23 72.0 °F 60.0 °F 30.25 in South 7.5 mph 26.5 mph 66% 0.00 in WeatherDisplay:10.37 W/m2 CLR
16:28 72.1 °F 60.1 °F 30.25 in SSW 7.2 mph 26.5 mph 66% 0.00 in WeatherDisplay:10.37 W/m2 CLR
16:33 72.1 °F 60.1 °F 30.25 in South 6.6 mph 26.5 mph 66% 0.00 in WeatherDisplay:10.37 W/m2 CLR
16:38 72.0 °F 60.0 °F 30.26 in South 6.7 mph 26.5 mph 66% 0.00 in WeatherDisplay:10.37 W/m2 CLR
16:43 71.9 °F 59.9 °F 30.26 in SSW 6.8 mph 26.5 mph 66% 0.00 in WeatherDisplay:10.37 W/m2 CLR
16:48 71.7 °F 59.7 °F 30.26 in SSW 6.6 mph 26.5 mph 66% 0.00 in WeatherDisplay:10.37 W/m2 CLR
16:53 71.3 °F 59.8 °F 30.27 in South 7.0 mph 26.5 mph 67% 0.00 in WeatherDisplay:10.37 W/m2 CLR
16:58 71.1 °F 60.0 °F 30.27 in SW 7.0 mph 26.5 mph 68% 0.00 in WeatherDisplay:10.37 W/m2 CLR
17:03 71.1 °F 60.0 °F 30.27 in SW 7.0 mph 26.5 mph 68% 0.00 in WeatherDisplay:10.37 W/m2 CLR
17:08 71.0 °F 60.3 °F 30.27 in SSW 6.6 mph 26.5 mph 69% 0.00 in WeatherDisplay:10.37 W/m2 CLR
17:13 70.8 °F 60.1 °F 30.27 in SSW 5.9 mph 26.5 mph 69% 0.00 in WeatherDisplay:10.37 W/m2 CLR
17:18 70.6 °F 59.9 °F 30.27 in South 5.7 mph 26.5 mph 69% 0.00 in WeatherDisplay:10.37 W/m2 CLR
17:23 70.1 °F 59.9 °F 30.27 in SSW 6.0 mph 26.5 mph 70% 0.00 in WeatherDisplay:10.37 W/m2 CLR
17:28 69.8 °F 60.0 °F 30.27 in SSW 5.9 mph 26.5 mph 71% 0.00 in WeatherDisplay:10.37 W/m2 CLR
17:33 69.8 °F 60.0 °F 30.27 in SSW 5.9 mph 26.5 mph 71% 0.00 in WeatherDisplay:10.37 W/m2 CLR
17:38 69.5 °F 59.7 °F 30.27 in South 5.9 mph 26.5 mph 71% 0.00 in WeatherDisplay:10.37 W/m2 CLR
17:43 69.1 °F 59.7 °F 30.27 in South 5.8 mph 26.5 mph 72% 0.00 in WeatherDisplay:10.37 W/m2 CLR
17:48 68.9 °F 59.5 °F 30.27 in SSW 5.6 mph 26.5 mph 72% 0.00 in WeatherDisplay:10.37 W/m2 CLR
17:53 68.7 °F 59.7 °F 30.27 in SSW 5.5 mph 26.5 mph 73% 0.00 in WeatherDisplay:10.37 W/m2 CLR
17:58 68.6 °F 59.6 °F 30.27 in SSW 5.4 mph 26.5 mph 73% 0.00 in WeatherDisplay:10.37 W/m2 CLR
18:03 68.4 °F 59.4 °F 30.27 in South 5.4 mph 26.5 mph 73% 0.00 in WeatherDisplay:10.37 W/m2 CLR
18:08 68.2 °F 59.6 °F 30.27 in SSE 5.2 mph 26.5 mph 74% 0.00 in WeatherDisplay:10.37 W/m2 CLR
18:13 68.0 °F 59.4 °F 30.27 in South 5.2 mph 26.5 mph 74% 0.00 in WeatherDisplay:10.37 W/m2 CLR
18:18 67.7 °F 59.1 °F 30.28 in South 5.1 mph 26.5 mph 74% 0.00 in WeatherDisplay:10.37 W/m2 CLR
18:23 67.7 °F 59.1 °F 30.28 in South 5.1 mph 26.5 mph 74% 0.00 in WeatherDisplay:10.37 W/m2 CLR
18:28 67.2 °F 59.0 °F 30.28 in South 4.2 mph 26.5 mph 75% 0.00 in WeatherDisplay:10.37 W/m2 CLR
18:33 66.9 °F 59.1 °F 30.28 in SSW 4.0 mph 26.5 mph 76% 0.00 in WeatherDisplay:10.37 W/m2 CLR
18:38 66.9 °F 59.1 °F 30.28 in SSW 4.0 mph 26.5 mph 76% 0.00 in WeatherDisplay:10.37 W/m2 CLR
18:43 66.5 °F 59.1 °F 30.28 in SSW 3.9 mph 26.5 mph 77% 0.00 in WeatherDisplay:10.37 W/m2 CLR
18:48 66.5 °F 59.1 °F 30.28 in SW 4.0 mph 26.5 mph 77% 0.00 in WeatherDisplay:10.37 W/m2 CLR
18:53 66.5 °F 59.1 °F 30.28 in South 3.9 mph 26.5 mph 77% 0.00 in WeatherDisplay:10.37 W/m2 CLR
18:58 66.5 °F 59.1 °F 30.28 in SSW 3.9 mph 26.5 mph 77% 0.00 in WeatherDisplay:10.37 W/m2 CLR
19:03 66.5 °F 59.1 °F 30.28 in SSW 3.9 mph 26.5 mph 77% 0.00 in WeatherDisplay:10.37 W/m2 CLR
19:08 66.2 °F 58.8 °F 30.28 in South 3.8 mph 26.5 mph 77% 0.00 in WeatherDisplay:10.37 W/m2 CLR
19:13 66.2 °F 58.8 °F 30.28 in South 3.8 mph 26.5 mph 77% 0.00 in WeatherDisplay:10.37 W/m2 CLR
19:18 66.1 °F 58.7 °F 30.28 in SSW 3.5 mph 26.5 mph 77% 0.00 in WeatherDisplay:10.37 W/m2 CLR
19:23 66.0 °F 58.6 °F 30.28 in SSE 3.5 mph 26.5 mph 77% 0.00 in WeatherDisplay:10.37 W/m2 CLR
19:28 65.8 °F 58.4 °F 30.28 in SW 3.6 mph 26.5 mph 77% 0.00 in WeatherDisplay:10.37 W/m2 CLR
19:33 65.7 °F 58.3 °F 30.28 in SW 3.7 mph 26.5 mph 77% 0.00 in WeatherDisplay:10.37 W/m2 CLR
19:38 65.5 °F 58.5 °F 30.28 in SW 3.7 mph 26.5 mph 78% 0.00 in WeatherDisplay:10.37 W/m2 CLR
19:43 65.5 °F 58.5 °F 30.28 in SW 3.7 mph 26.5 mph 78% 0.00 in WeatherDisplay:10.37 W/m2 CLR
19:48 65.5 °F 58.5 °F 30.28 in SSW 4.0 mph 26.5 mph 78% 0.00 in WeatherDisplay:10.37 W/m2 CLR
19:53 65.5 °F 58.8 °F 30.28 in SSW 4.4 mph 26.5 mph 79% 0.00 in WeatherDisplay:10.37 W/m2 CLR
19:58 65.5 °F 58.8 °F 30.28 in South 4.6 mph 26.5 mph 79% 0.00 in WeatherDisplay:10.37 W/m2 CLR
20:03 65.4 °F 58.7 °F 30.28 in South 4.9 mph 26.5 mph 79% 0.00 in WeatherDisplay:10.37 W/m2 CLR
20:08 65.4 °F 58.7 °F 30.28 in SSW 5.0 mph 26.5 mph 79% 0.00 in WeatherDisplay:10.37 W/m2 CLR
20:13 65.3 °F 59.0 °F 30.29 in South 5.4 mph 26.5 mph 80% 0.00 in WeatherDisplay:10.37 W/m2 CLR
20:18 65.2 °F 58.9 °F 30.29 in SSW 5.5 mph 26.5 mph 80% 0.00 in WeatherDisplay:10.37 W/m2 CLR
20:23 65.2 °F 58.9 °F 30.29 in SSW 5.5 mph 26.5 mph 80% 0.00 in WeatherDisplay:10.37 W/m2 CLR
20:28 65.1 °F 58.8 °F 30.29 in South 5.6 mph 26.5 mph 80% 0.00 in WeatherDisplay:10.37 W/m2 CLR
20:33 65.1 °F 58.8 °F 30.29 in South 5.6 mph 26.5 mph 80% 0.00 in WeatherDisplay:10.37 W/m2 CLR
20:38 64.5 °F 58.5 °F 30.29 in SSE 5.5 mph 26.5 mph 81% 0.00 in WeatherDisplay:10.37 W/m2 CLR
20:45 63.9 °F 58.6 °F 30.29 in SSW 6.3 mph 16.0 mph 83% 0.00 in WeatherDisplay:10.37 W/m2 CLR
20:50 63.8 °F 58.9 °F 30.29 in South 5.0 mph 13.0 mph 84% 0.00 in WeatherDisplay:10.37 W/m2 CLR
20:55 63.9 °F 59.3 °F 30.29 in SSW 6.7 mph 18.4 mph 85% 0.00 in WeatherDisplay:10.37 W/m2 CLR
21:00 63.8 °F 59.2 °F 30.29 in South 7.8 mph 18.4 mph 85% 0.00 in WeatherDisplay:10.37 W/m2 CLR
21:05 63.7 °F 59.1 °F 30.30 in SSW 8.0 mph 18.4 mph 85% 0.00 in WeatherDisplay:10.37 W/m2 CLR
21:10 63.6 °F 59.3 °F 30.30 in SSW 6.5 mph 18.4 mph 86% 0.00 in WeatherDisplay:10.37 W/m2 CLR
21:15 63.6 °F 59.3 °F 30.30 in South 6.2 mph 18.4 mph 86% 0.00 in WeatherDisplay:10.37 W/m2 CLR
21:20 63.5 °F 59.2 °F 30.30 in SSW 5.2 mph 18.4 mph 86% 0.00 in WeatherDisplay:10.37 W/m2 CLR
21:25 63.3 °F 59.4 °F 30.30 in SSW 5.8 mph 18.4 mph 87% 0.00 in WeatherDisplay:10.37 W/m2 CLR
21:30 63.2 °F 59.3 °F 30.30 in SSW 4.6 mph 18.4 mph 87% 0.00 in WeatherDisplay:10.37 W/m2 CLR
21:35 63.1 °F 59.2 °F 30.30 in South 4.5 mph 18.4 mph 87% 0.00 in WeatherDisplay:10.37 W/m2 CLR
21:40 63.1 °F 59.5 °F 30.30 in SSW 4.6 mph 18.4 mph 88% 0.00 in WeatherDisplay:10.37 W/m2 CLR
21:45 63.0 °F 59.4 °F 30.30 in SSW 5.2 mph 18.4 mph 88% 0.00 in WeatherDisplay:10.37 W/m2 CLR
21:50 62.9 °F 59.3 °F 30.30 in South 4.3 mph 18.4 mph 88% 0.00 in WeatherDisplay:10.37 W/m2 CLR
21:55 62.8 °F 59.2 °F 30.30 in South 5.4 mph 18.4 mph 88% 0.00 in WeatherDisplay:10.37 W/m2 CLR
22:00 62.7 °F 59.1 °F 30.30 in SSW 3.8 mph 18.4 mph 88% 0.00 in WeatherDisplay:10.37 W/m2 CLR
22:05 62.6 °F 59.3 °F 30.30 in SW 3.2 mph 18.4 mph 89% 0.00 in WeatherDisplay:10.37 W/m2 CLR
22:10 62.5 °F 59.2 °F 30.30 in SE 3.5 mph 18.4 mph 89% 0.00 in WeatherDisplay:10.37 W/m2 CLR
22:15 62.4 °F 59.1 °F 30.30 in SW 6.6 mph 18.4 mph 89% 0.00 in WeatherDisplay:10.37 W/m2 CLR
East Vincent, PA, USA
Compliments of Weather Underground - 3.75 mb